createdAt,value
2022-12-29T00:00:46.395Z,19.35
2022-12-29T00:03:16.831Z,21.13
2022-12-29T00:05:48.226Z,17.80
2022-12-29T00:08:18.402Z,26.15
2022-12-29T00:10:51.234Z,22.90
2022-12-29T00:13:33.925Z,21.20
2022-12-29T00:16:04.648Z,21.95
2022-12-29T00:18:35.076Z,20.98
2022-12-29T00:21:17.737Z,20.52
2022-12-29T00:24:06.227Z,18.63
2022-12-29T00:26:52.275Z,14.95
2022-12-29T00:29:34.963Z,16.50
2022-12-29T00:32:17.437Z,18.90
2022-12-29T00:35:00.980Z,25.25
2022-12-29T00:37:43.531Z,17.00
2022-12-29T00:40:26.384Z,17.20
2022-12-29T00:43:14.382Z,16.15
2022-12-29T00:45:44.999Z,20.80
2022-12-29T00:48:15.557Z,16.02
2022-12-29T00:50:43.166Z,18.17
2022-12-29T00:53:13.468Z,19.85
2022-12-29T00:55:44.697Z,26.90
2022-12-29T00:58:17.482Z,21.38
2022-12-29T01:00:48.680Z,17.38
2022-12-29T01:03:19.148Z,14.43
2022-12-29T01:05:49.446Z,13.13
2022-12-29T01:08:19.668Z,19.65
2022-12-29T01:10:47.339Z,19.23
2022-12-29T01:13:20.205Z,22.88
2022-12-29T01:15:53.953Z,20.88
2022-12-29T01:18:25.708Z,20.38
2022-12-29T01:21:02.913Z,17.73
2022-12-29T01:23:33.707Z,21.25
2022-12-29T01:26:13.188Z,19.55
2022-12-29T01:28:47.318Z,14.63
2022-12-29T01:31:19.167Z,18.42
2022-12-29T01:33:49.507Z,21.75
2022-12-29T01:36:21.137Z,21.23
2022-12-29T01:38:52.485Z,21.48
2022-12-29T01:41:24.805Z,23.20
2022-12-29T01:44:00.451Z,18.45
2022-12-29T01:46:34.690Z,23.33
2022-12-29T01:49:15.161Z,13.13
2022-12-29T01:51:48.787Z,20.80
2022-12-29T01:54:23.168Z,14.90
2022-12-29T01:56:56.418Z,20.42
2022-12-29T01:59:33.270Z,17.52
2022-12-29T02:02:05.211Z,16.05
2022-12-29T02:04:37.300Z,13.90
2022-12-29T02:07:12.727Z,8.75
2022-12-29T02:09:43.366Z,14.27
2022-12-29T02:12:14.118Z,14.88
2022-12-29T02:14:47.401Z,13.63
2022-12-29T02:17:24.950Z,15.20
2022-12-29T02:20:28.765Z,13.63
2022-12-29T02:23:17.488Z,12.60
2022-12-29T02:26:14.463Z,10.75
2022-12-29T02:29:10.781Z,17.40
2022-12-29T02:31:50.407Z,16.33
2022-12-29T02:34:29.804Z,21.17
2022-12-29T02:37:07.413Z,19.10
2022-12-29T02:39:45.055Z,17.45
2022-12-29T02:42:19.788Z,18.27
2022-12-29T02:44:58.880Z,15.77
2022-12-29T02:47:39.772Z,21.48
2022-12-29T02:50:18.963Z,15.00
2022-12-29T02:52:54.853Z,18.50
2022-12-29T02:55:22.524Z,19.17
2022-12-29T02:58:20.208Z,15.32
2022-12-29T03:01:06.177Z,19.80
2022-12-29T03:03:51.885Z,14.77
2022-12-29T03:06:36.924Z,18.15
2022-12-29T03:09:18.913Z,16.95
2022-12-29T03:12:12.453Z,19.75
2022-12-29T03:15:06.797Z,15.57
2022-12-29T03:17:47.427Z,15.35
2022-12-29T03:20:25.372Z,14.65
2022-12-29T03:23:04.218Z,17.63
2022-12-29T03:25:43.905Z,15.77
2022-12-29T03:28:19.728Z,16.48
2022-12-29T03:30:51.161Z,13.20
2022-12-29T03:33:26.717Z,12.85
2022-12-29T03:36:02.979Z,14.27
2022-12-29T03:38:40.034Z,13.88
2022-12-29T03:41:15.279Z,13.20
2022-12-29T03:43:45.800Z,22.25
2022-12-29T03:46:16.286Z,16.60
2022-12-29T03:48:46.661Z,12.63
2022-12-29T03:51:19.568Z,12.90
2022-12-29T03:53:50.023Z,18.38
2022-12-29T03:56:20.686Z,13.90
2022-12-29T03:58:52.639Z,14.88
2022-12-29T04:01:28.784Z,24.58
2022-12-29T04:03:59.238Z,15.48
2022-12-29T04:06:32.504Z,25.83
2022-12-29T04:09:07.489Z,13.98
2022-12-29T04:11:42.765Z,15.95
2022-12-29T04:14:13.096Z,19.17
2022-12-29T04:16:44.935Z,15.57
2022-12-29T04:19:16.000Z,12.98
2022-12-29T04:21:48.798Z,29.77
2022-12-29T04:24:19.395Z,17.13
2022-12-29T04:26:52.337Z,19.05
2022-12-29T04:29:35.368Z,22.05
2022-12-29T04:32:24.317Z,23.80
2022-12-29T04:34:57.384Z,24.50
2022-12-29T04:37:30.564Z,13.60
2022-12-29T04:40:01.594Z,19.95
2022-12-29T04:42:33.504Z,23.65
2022-12-29T04:45:04.011Z,20.10
2022-12-29T04:48:00.685Z,21.50
2022-12-29T04:50:42.316Z,20.33
2022-12-29T04:53:22.021Z,20.65
2022-12-29T04:55:53.980Z,19.30
2022-12-29T04:58:25.956Z,19.35
2022-12-29T05:00:56.609Z,14.60
2022-12-29T05:03:28.984Z,17.67
2022-12-29T05:06:00.187Z,28.50
2022-12-29T05:08:33.812Z,17.10
2022-12-29T05:11:06.445Z,17.38
2022-12-29T05:13:36.657Z,20.38
2022-12-29T05:16:07.534Z,19.83
2022-12-29T05:18:37.856Z,17.52
2022-12-29T05:21:08.503Z,17.45
2022-12-29T05:23:41.408Z,21.45
2022-12-29T05:26:11.823Z,18.98
2022-12-29T05:29:07.897Z,19.92
2022-12-29T05:31:39.014Z,16.75
2022-12-29T05:34:10.242Z,17.65
2022-12-29T05:36:40.543Z,24.02
2022-12-29T05:39:15.734Z,21.75
2022-12-29T05:41:49.803Z,23.52
2022-12-29T05:44:31.534Z,23.40
2022-12-29T05:47:39.837Z,19.10
2022-12-29T05:50:24.431Z,24.63
2022-12-29T05:53:21.528Z,18.58
2022-12-29T05:55:54.427Z,19.15
2022-12-29T05:58:24.896Z,24.02
2022-12-29T06:00:55.717Z,19.90
2022-12-29T06:03:26.235Z,14.88
2022-12-29T06:05:57.410Z,18.45
2022-12-29T06:08:27.845Z,20.30
2022-12-29T06:11:00.946Z,20.65
2022-12-29T06:13:31.277Z,20.08
2022-12-29T06:16:01.907Z,20.02
2022-12-29T06:18:32.742Z,22.40
2022-12-29T06:21:04.659Z,17.73
2022-12-29T06:23:35.673Z,22.85
2022-12-29T06:26:08.624Z,19.88
2022-12-29T06:28:38.937Z,16.70
2022-12-29T06:31:13.880Z,22.15
2022-12-29T06:33:49.550Z,21.65
2022-12-29T06:36:20.244Z,19.48
2022-12-29T06:38:53.477Z,17.52
2022-12-29T06:41:31.959Z,19.65
2022-12-29T06:44:21.210Z,21.08
2022-12-29T06:46:58.529Z,22.45
2022-12-29T06:49:28.793Z,18.42
2022-12-29T06:51:59.533Z,18.17
2022-12-29T06:54:29.811Z,30.63
2022-12-29T06:57:03.248Z,29.40
2022-12-29T06:59:33.434Z,20.75
2022-12-29T07:02:04.877Z,18.77
2022-12-29T07:04:35.308Z,18.20
2022-12-29T07:07:05.709Z,20.35
2022-12-29T07:09:36.015Z,16.15
2022-12-29T07:12:09.270Z,23.13
2022-12-29T07:14:43.194Z,19.13
2022-12-29T07:17:13.865Z,25.52
2022-12-29T07:19:45.325Z,18.98
2022-12-29T07:22:15.733Z,23.52
2022-12-29T07:24:46.352Z,21.10
2022-12-29T07:27:19.218Z,15.63
2022-12-29T07:29:49.879Z,20.70
2022-12-29T07:32:20.224Z,20.60
2022-12-29T07:34:50.597Z,28.00
2022-12-29T07:37:21.045Z,21.65
2022-12-29T07:39:51.306Z,22.58
2022-12-29T07:42:24.341Z,16.98
2022-12-29T07:44:56.000Z,21.55
2022-12-29T07:47:30.798Z,20.83
2022-12-29T07:50:01.220Z,22.95
2022-12-29T07:52:31.661Z,19.15
2022-12-29T07:55:02.188Z,15.70
2022-12-29T07:57:34.968Z,23.55
2022-12-29T08:00:06.713Z,21.48
2022-12-29T08:05:12.798Z,19.33
2022-12-29T08:07:43.388Z,17.05
2022-12-29T08:10:14.076Z,23.35
2022-12-29T08:12:47.560Z,18.55
2022-12-29T08:15:17.989Z,18.38
2022-12-29T08:17:48.587Z,19.15
2022-12-29T08:20:19.096Z,19.35
2022-12-29T08:22:49.379Z,24.67
2022-12-29T08:25:20.655Z,16.60
2022-12-29T08:27:53.638Z,20.45
2022-12-29T08:30:24.605Z,17.55
2022-12-29T08:32:55.440Z,25.23
2022-12-29T08:35:25.723Z,21.10
2022-12-29T08:37:56.147Z,19.65
2022-12-29T08:40:26.509Z,19.30
2022-12-29T08:42:59.357Z,17.55
2022-12-29T08:45:29.640Z,24.35
2022-12-29T08:48:00.784Z,16.77
2022-12-29T08:50:31.068Z,25.25
2022-12-29T08:53:01.335Z,23.52
2022-12-29T08:55:31.612Z,15.43
2022-12-29T08:58:04.929Z,27.23
2022-12-29T09:00:36.568Z,19.33
2022-12-29T09:03:07.090Z,19.45
2022-12-29T09:05:37.897Z,23.02
2022-12-29T09:08:08.596Z,18.08
2022-12-29T09:10:38.932Z,21.38
2022-12-29T09:13:11.855Z,25.92
2022-12-29T09:15:42.964Z,18.48
2022-12-29T09:18:20.317Z,22.50
2022-12-29T09:20:51.331Z,20.52
2022-12-29T09:23:21.642Z,26.35
2022-12-29T09:25:52.192Z,27.48
2022-12-29T09:28:25.626Z,18.33
2022-12-29T09:30:56.623Z,17.80
2022-12-29T09:33:26.876Z,21.05
2022-12-29T09:35:59.417Z,20.15
2022-12-29T09:38:30.965Z,20.42
2022-12-29T09:41:09.799Z,16.60
2022-12-29T09:44:08.666Z,25.70
2022-12-29T09:46:42.100Z,18.42
2022-12-29T09:49:23.381Z,27.50
2022-12-29T09:51:57.384Z,15.23
2022-12-29T09:54:39.620Z,23.55
2022-12-29T09:57:19.933Z,19.83
2022-12-29T09:59:57.887Z,15.80
2022-12-29T10:02:42.183Z,18.23
2022-12-29T10:05:38.470Z,15.35
2022-12-29T10:08:21.902Z,14.10
2022-12-29T10:10:58.764Z,16.92
2022-12-29T10:13:47.033Z,14.15
2022-12-29T10:16:29.547Z,15.88
2022-12-29T10:19:14.783Z,18.60
2022-12-29T10:21:59.162Z,14.70
2022-12-29T10:24:32.732Z,17.02
2022-12-29T10:27:03.692Z,21.38
2022-12-29T10:29:39.528Z,14.38
2022-12-29T10:32:26.296Z,18.63
2022-12-29T10:35:00.194Z,19.60
2022-12-29T10:37:38.850Z,19.55
2022-12-29T10:40:22.887Z,17.65
2022-12-29T10:42:56.642Z,20.10
2022-12-29T10:45:35.194Z,21.10
2022-12-29T10:48:14.964Z,13.73
2022-12-29T10:50:45.474Z,15.43
2022-12-29T10:53:23.128Z,21.73
2022-12-29T10:55:54.352Z,21.45
2022-12-29T10:58:25.417Z,17.63
2022-12-29T11:00:57.715Z,17.75
2022-12-29T11:03:55.345Z,21.83
2022-12-29T11:06:30.323Z,14.60
2022-12-29T11:09:03.989Z,16.17
2022-12-29T11:11:38.262Z,24.38
2022-12-29T11:14:17.146Z,27.55
2022-12-29T11:16:47.539Z,25.90
2022-12-29T11:19:30.184Z,15.57
2022-12-29T11:22:17.700Z,16.75
2022-12-29T11:27:21.707Z,22.25
2022-12-29T11:29:52.553Z,15.05
2022-12-29T11:32:28.817Z,19.33
2022-12-29T11:35:03.086Z,14.40
2022-12-29T11:37:37.035Z,13.77
2022-12-29T11:40:14.065Z,12.82
2022-12-29T11:45:22.012Z,17.08
2022-12-29T11:47:54.201Z,18.67
2022-12-29T11:50:30.500Z,21.65
2022-12-29T11:53:04.452Z,11.35
2022-12-29T11:55:35.448Z,14.05
2022-12-29T11:58:07.591Z,18.92
2022-12-29T12:00:42.990Z,19.48
2022-12-29T12:03:20.560Z,16.95
2022-12-29T12:05:56.926Z,16.40
2022-12-29T12:08:37.548Z,17.58
2022-12-29T12:11:13.676Z,14.80
2022-12-29T12:13:50.543Z,18.35
2022-12-29T12:16:25.399Z,17.42
2022-12-29T12:21:45.095Z,17.17
2022-12-29T12:24:41.815Z,18.05
2022-12-29T12:27:19.240Z,25.63
2022-12-29T12:29:56.583Z,10.18
2022-12-29T12:32:33.261Z,19.00
2022-12-29T12:35:03.556Z,13.15
2022-12-29T12:38:10.295Z,13.80
2022-12-29T12:41:15.527Z,8.98
2022-12-29T12:43:53.561Z,14.95
2022-12-29T12:46:41.821Z,16.13
2022-12-29T12:49:43.765Z,19.23
2022-12-29T12:52:25.857Z,16.20
2022-12-29T12:55:14.699Z,12.30
2022-12-29T12:57:52.379Z,11.77
2022-12-29T13:00:24.506Z,15.13
2022-12-29T13:03:08.995Z,11.38
2022-12-29T13:06:20.871Z,20.83
2022-12-29T13:09:02.950Z,16.05
2022-12-29T13:11:43.151Z,17.77
2022-12-29T13:14:34.183Z,17.55
2022-12-29T13:17:12.247Z,17.55
2022-12-29T13:19:50.235Z,14.45
2022-12-29T13:22:27.786Z,18.80
2022-12-29T13:25:14.631Z,15.82
2022-12-29T13:27:55.295Z,16.98
2022-12-29T13:30:30.430Z,18.70
2022-12-29T13:33:09.485Z,19.70
2022-12-29T13:35:53.927Z,14.27
2022-12-29T13:38:28.316Z,23.30
2022-12-29T13:41:04.454Z,23.23
2022-12-29T13:43:40.889Z,15.30
2022-12-29T13:46:15.677Z,16.92
2022-12-29T13:48:53.068Z,19.08
2022-12-29T13:51:28.489Z,19.70
2022-12-29T13:54:09.456Z,18.42
2022-12-29T13:56:43.943Z,18.58
2022-12-29T13:59:25.056Z,9.20
2022-12-29T14:02:01.408Z,7.03
2022-12-29T14:04:34.342Z,4.78
2022-12-29T14:07:07.581Z,5.13
2022-12-29T14:09:56.483Z,5.22
2022-12-29T14:12:35.519Z,6.45
2022-12-29T14:15:25.428Z,4.50
2022-12-29T14:18:13.636Z,6.85
2022-12-29T14:20:54.793Z,5.47
2022-12-29T14:23:41.674Z,7.05
2022-12-29T14:26:17.692Z,6.75
2022-12-29T14:28:49.887Z,8.52
2022-12-29T14:31:42.571Z,6.53
2022-12-29T14:34:34.761Z,7.72
2022-12-29T14:37:06.123Z,7.57
2022-12-29T14:39:42.312Z,12.55
2022-12-29T14:42:18.627Z,5.30
2022-12-29T14:44:52.115Z,7.47
2022-12-29T14:47:31.444Z,8.43
2022-12-29T14:50:08.253Z,3.97
2022-12-29T14:52:50.154Z,6.88
2022-12-29T14:55:40.803Z,11.32
2022-12-29T14:58:18.299Z,9.20
2022-12-29T15:00:49.607Z,11.93
2022-12-29T15:03:27.072Z,12.57
2022-12-29T15:06:01.590Z,16.20
2022-12-29T15:08:39.471Z,11.52
2022-12-29T15:11:17.044Z,8.70
2022-12-29T15:13:49.795Z,15.10
2022-12-29T15:16:28.382Z,10.95
2022-12-29T15:19:02.149Z,15.68
2022-12-29T15:21:35.001Z,15.60
2022-12-29T15:24:07.292Z,24.80
2022-12-29T15:26:42.326Z,14.95
2022-12-29T15:29:33.987Z,13.90
2022-12-29T15:32:21.849Z,13.32
2022-12-29T15:34:56.191Z,13.05
2022-12-29T15:37:28.765Z,17.55
2022-12-29T15:39:59.979Z,17.98
2022-12-29T15:42:56.602Z,17.58
2022-12-29T15:45:33.937Z,17.83
2022-12-29T15:48:04.377Z,14.27
2022-12-29T15:50:40.454Z,11.82
2022-12-29T15:53:15.252Z,13.47
2022-12-29T15:55:48.644Z,10.85
2022-12-29T15:58:27.332Z,11.43
2022-12-29T16:01:00.267Z,14.02
2022-12-29T16:03:33.729Z,13.60
2022-12-29T16:06:27.352Z,11.25
2022-12-29T16:09:01.287Z,9.48
2022-12-29T16:11:36.790Z,11.70
2022-12-29T16:14:13.168Z,10.45
2022-12-29T16:16:47.170Z,13.13
2022-12-29T16:19:22.259Z,9.85
2022-12-29T16:21:55.425Z,6.63
2022-12-29T16:24:29.863Z,13.93
2022-12-29T16:27:05.900Z,11.25
2022-12-29T16:29:37.197Z,16.63
2022-12-29T16:32:28.405Z,15.85
2022-12-29T16:35:13.755Z,22.27
2022-12-29T16:37:46.748Z,21.27
2022-12-29T16:40:31.892Z,14.18
2022-12-29T16:43:04.816Z,15.02
2022-12-29T16:46:08.303Z,16.17
2022-12-29T16:48:40.748Z,11.35
2022-12-29T16:51:19.813Z,12.43
2022-12-29T16:53:56.195Z,10.05
2022-12-29T16:56:28.334Z,9.73
2022-12-29T16:59:06.850Z,14.70
2022-12-29T17:01:40.233Z,14.13
2022-12-29T17:04:13.868Z,11.20
2022-12-29T17:06:44.571Z,9.32
2022-12-29T17:09:25.508Z,8.73
2022-12-29T17:12:02.882Z,8.68
2022-12-29T17:14:44.035Z,9.88
2022-12-29T17:17:20.002Z,13.38
2022-12-29T17:19:53.226Z,8.10
2022-12-29T17:22:27.990Z,9.30
2022-12-29T17:25:03.908Z,10.85
2022-12-29T17:27:38.583Z,12.37
2022-12-29T17:30:15.803Z,10.43
2022-12-29T17:32:48.493Z,11.50
2022-12-29T17:35:20.160Z,10.55
2022-12-29T17:37:51.360Z,12.35
2022-12-29T17:40:25.873Z,11.27
2022-12-29T17:42:58.181Z,12.57
2022-12-29T17:45:30.280Z,15.13
2022-12-29T17:48:02.061Z,14.32
2022-12-29T17:50:37.354Z,16.42
2022-12-29T17:53:09.309Z,10.77
2022-12-29T17:55:42.432Z,12.95
2022-12-29T17:58:20.599Z,13.88
2022-12-29T18:00:52.112Z,15.30
2022-12-29T18:03:26.245Z,11.65
2022-12-29T18:05:56.789Z,9.27
2022-12-29T18:08:28.716Z,15.32
2022-12-29T18:11:02.356Z,15.25
2022-12-29T18:13:45.970Z,14.07
2022-12-29T18:16:17.216Z,13.73
2022-12-29T18:18:47.634Z,16.48
2022-12-29T18:21:20.710Z,25.77
2022-12-29T18:23:51.709Z,15.23
2022-12-29T18:26:28.669Z,18.27
2022-12-29T18:28:59.750Z,19.92
2022-12-29T18:31:31.594Z,20.10
2022-12-29T18:34:03.641Z,14.65
2022-12-29T18:36:33.886Z,18.05
2022-12-29T18:39:04.128Z,18.08
2022-12-29T18:41:37.024Z,18.17
2022-12-29T18:44:07.387Z,15.18
2022-12-29T18:46:37.751Z,14.00
2022-12-29T18:49:08.972Z,14.73
2022-12-29T18:51:39.392Z,11.80
2022-12-29T18:54:13.916Z,15.73
2022-12-29T18:56:46.796Z,14.95
2022-12-29T18:59:17.051Z,14.60
2022-12-29T19:01:47.358Z,14.02
2022-12-29T19:04:18.275Z,14.45
2022-12-29T19:06:48.565Z,15.43
2022-12-29T19:09:18.940Z,13.70
2022-12-29T19:11:51.840Z,16.15
2022-12-29T19:14:22.037Z,19.45
2022-12-29T19:16:52.963Z,14.80
2022-12-29T19:19:23.325Z,18.13
2022-12-29T19:21:56.645Z,16.40
2022-12-29T19:24:27.047Z,16.75
2022-12-29T19:27:00.159Z,15.90
2022-12-29T19:29:31.078Z,17.23
2022-12-29T19:32:01.675Z,14.80
2022-12-29T19:34:32.259Z,19.30
2022-12-29T19:37:03.312Z,19.05
2022-12-29T19:39:33.874Z,17.88
2022-12-29T19:42:06.973Z,12.82
2022-12-29T19:44:37.949Z,20.05
2022-12-29T19:47:08.518Z,15.65
2022-12-29T19:49:39.050Z,12.50
2022-12-29T19:52:09.378Z,17.45
2022-12-29T19:54:39.665Z,12.15
2022-12-29T19:57:15.060Z,17.88
2022-12-29T19:59:45.458Z,11.93
2022-12-29T20:02:21.704Z,10.77
2022-12-29T20:04:52.280Z,16.70
2022-12-29T20:07:22.760Z,12.32
2022-12-29T20:09:53.119Z,12.10
2022-12-29T20:12:29.253Z,11.00
2022-12-29T20:14:59.907Z,15.75
2022-12-29T20:18:02.571Z,15.65
2022-12-29T20:20:20.641Z,10.35
2022-12-29T20:22:50.986Z,15.52
2022-12-29T20:28:14.491Z,16.45
2022-12-29T20:30:44.882Z,13.65
2022-12-29T20:33:15.554Z,13.02
2022-12-29T20:35:45.806Z,11.38
2022-12-29T20:38:17.185Z,12.60
2022-12-29T20:40:49.290Z,10.68
2022-12-29T20:43:22.664Z,17.45
2022-12-29T20:45:53.444Z,15.80
2022-12-29T20:48:24.386Z,22.02
2022-12-29T20:50:59.503Z,23.80
2022-12-29T20:53:30.906Z,38.13
2022-12-29T20:56:05.483Z,35.47
2022-12-29T20:59:08.174Z,20.98
2022-12-29T21:01:30.117Z,16.67
2022-12-29T21:04:01.040Z,16.60
2022-12-29T21:06:31.802Z,9.07
2022-12-29T21:09:03.427Z,14.48
2022-12-29T21:11:34.298Z,14.90
2022-12-29T21:14:08.881Z,10.27
2022-12-29T21:16:40.213Z,10.18
2022-12-29T21:19:11.067Z,13.65
2022-12-29T21:21:41.839Z,14.07
2022-12-29T21:24:12.768Z,8.70
2022-12-29T21:26:43.662Z,11.05
2022-12-29T21:29:17.052Z,10.85
2022-12-29T21:31:48.410Z,10.45
2022-12-29T21:34:19.496Z,10.18
2022-12-29T21:36:50.217Z,13.65
2022-12-29T21:39:21.002Z,14.45
2022-12-29T21:41:52.239Z,11.30
2022-12-29T21:44:38.200Z,9.10
2022-12-29T21:47:09.118Z,12.63
2022-12-29T21:49:41.154Z,10.45
2022-12-29T21:52:12.147Z,11.73
2022-12-29T21:54:55.158Z,14.38
2022-12-29T21:57:38.215Z,13.85
2022-12-29T22:00:26.288Z,10.98
2022-12-29T22:03:14.503Z,16.27
2022-12-29T22:06:01.741Z,19.13
2022-12-29T22:08:44.788Z,12.80
2022-12-29T22:11:27.925Z,12.98
2022-12-29T22:13:58.669Z,12.30
2022-12-29T22:16:32.183Z,10.02
2022-12-29T22:19:03.116Z,9.73
2022-12-29T22:21:34.270Z,9.90
2022-12-29T22:24:05.145Z,12.60
2022-12-29T22:26:35.915Z,15.05
2022-12-29T22:29:06.899Z,13.23
2022-12-29T22:31:40.403Z,15.20
2022-12-29T22:34:11.175Z,14.73
2022-12-29T22:36:42.040Z,14.70
2022-12-29T22:39:12.875Z,15.98
2022-12-29T22:41:43.706Z,14.25
2022-12-29T22:44:14.711Z,16.40
2022-12-29T22:46:48.163Z,13.82
2022-12-29T22:49:19.193Z,15.63
2022-12-29T22:51:50.663Z,11.90
2022-12-29T22:54:21.753Z,12.63
2022-12-29T22:56:52.548Z,9.18
2022-12-29T22:59:23.261Z,13.85
2022-12-29T23:01:56.638Z,14.38
2022-12-29T23:07:18.212Z,12.45
2022-12-29T23:09:49.089Z,9.85
2022-12-29T23:12:20.276Z,9.93
2022-12-29T23:14:50.915Z,11.55
2022-12-29T23:17:25.382Z,10.43
2022-12-29T23:19:56.757Z,11.43
2022-12-29T23:22:27.503Z,14.63
2022-12-29T23:24:58.289Z,12.15
2022-12-29T23:27:29.116Z,9.40
2022-12-29T23:29:59.938Z,12.80
2022-12-29T23:32:33.433Z,7.40
2022-12-29T23:35:04.142Z,15.50
2022-12-29T23:37:34.840Z,10.40
2022-12-29T23:40:06.050Z,14.30
2022-12-29T23:42:36.810Z,13.02
2022-12-29T23:45:08.697Z,13.75
2022-12-29T23:47:42.024Z,12.70
2022-12-29T23:50:13.052Z,10.07
2022-12-29T23:52:43.829Z,7.85
2022-12-29T23:55:14.589Z,12.75
2022-12-29T23:57:45.360Z,13.52
